Time;durP1;ratioP1;P1;durP2;ratioP2;P2;SDS_P1;SDS_P2;PMS_P1;PMS_P2;Temp;Humidity;BMP_temperature;BMP_pressure;BME280_temperature;BME280_humidity;BME280_pressure;Samples;Min_cycle;Max_cycle;Signal;HPM_P1;HPM_P2
2023/06/20 00:01:20;;;;;;;8.15;3.80;;;;;;;;;;5054857;28;20053;-62
2023/06/20 00:03:47;;;;;;;4.82;3.92;;;;;;;;;;5055214;28;20443;-62
2023/06/20 00:06:13;;;;;;;6.22;3.83;;;;;;;;;;5054866;28;20041;-62
2023/06/20 00:08:40;;;;;;;6.15;4.18;;;;;;;;;;5054907;28;20439;-62
2023/06/20 00:11:06;;;;;;;5.43;3.55;;;;;;;;;;5054805;28;20083;-62
2023/06/20 00:13:34;;;;;;;5.63;3.85;;;;;;;;;;5054639;28;20060;-62
2023/06/20 00:16:00;;;;;;;5.70;3.67;;;;;;;;;;5054798;28;20055;-62
2023/06/20 00:18:27;;;;;;;4.97;3.97;;;;;;;;;;5054481;28;20049;-62
2023/06/20 00:20:53;;;;;;;7.72;4.10;;;;;;;;;;5054508;28;20343;-62
2023/06/20 00:23:21;;;;;;;6.65;3.75;;;;;;;;;;5054833;28;20053;-62
2023/06/20 00:25:48;;;;;;;5.82;3.90;;;;;;;;;;5054507;28;20045;-62
2023/06/20 00:28:17;;;;;;;6.10;4.20;;;;;;;;;;5054347;28;20049;-62
2023/06/20 00:30:43;;;;;;;7.50;4.45;;;;;;;;;;5054616;28;20278;-62
2023/06/20 00:33:10;;;;;;;7.43;4.57;;;;;;;;;;5054535;28;20144;-62
2023/06/20 00:35:37;;;;;;;6.55;4.10;;;;;;;;;;5054552;28;20053;-62
2023/06/20 00:38:04;;;;;;;5.38;4.10;;;;;;;;;;5054361;28;20052;-62
2023/06/20 00:40:30;;;;;;;5.87;4.30;;;;;;;;;;5054020;28;20056;-61
2023/06/20 00:42:57;;;;;;;5.70;3.90;;;;;;;;;;5054346;28;20053;-62
2023/06/20 00:45:30;;;;;;;7.43;4.20;;;;;;;;;;5054135;28;20107;-61
2023/06/20 00:47:57;;;;;;;4.60;4.13;;;;;;;;;;5053832;28;20068;-62
2023/06/20 00:50:27;;;;;;;5.63;4.77;;;;;;;;;;5053205;28;20076;-61
2023/06/20 00:52:59;;;;;;;6.40;4.05;;;;;;;;;;5054096;28;20124;-62
2023/06/20 00:55:27;;;;;;;5.95;4.28;;;;;;;;;;5053824;28;20052;-62
2023/06/20 00:57:55;;;;;;;7.30;4.70;;;;;;;;;;5054047;28;20041;-62
2023/06/20 01:00:22;;;;;;;7.50;4.40;;;;;;;;;;5054052;28;20041;-62
2023/06/20 01:02:49;;;;;;;6.50;4.90;;;;;;;;;;5053784;28;20048;-62
2023/06/20 01:05:16;;;;;;;7.13;4.93;;;;;;;;;;5053679;28;20071;-62
2023/06/20 01:07:44;;;;;;;5.68;4.63;;;;;;;;;;5050270;28;20053;-62
2023/06/20 01:10:24;;;;;;;5.78;4.50;;;;;;;;;;5049313;28;20045;-62
2023/06/20 01:12:59;;;;;;;8.52;5.00;;;;;;;;;;5043586;28;20056;-62
2023/06/20 01:15:34;;;;;;;7.10;4.97;;;;;;;;;;5053711;28;20049;-62
2023/06/20 01:18:06;;;;;;;6.90;4.85;;;;;;;;;;5053784;28;20072;-62
2023/06/20 01:20:36;;;;;;;7.13;5.05;;;;;;;;;;5053751;28;20432;-62
2023/06/20 01:23:06;;;;;;;7.15;5.20;;;;;;;;;;5053300;28;20464;-62
2023/06/20 01:25:52;;;;;;;6.40;4.70;;;;;;;;;;5053365;28;20055;-62
2023/06/20 01:28:21;;;;;;;6.28;4.95;;;;;;;;;;5053102;28;20053;-62
2023/06/20 01:30:54;;;;;;;7.30;5.30;;;;;;;;;;5052023;28;20049;-62
2023/06/20 01:33:27;;;;;;;7.50;4.80;;;;;;;;;;5053093;28;20064;-62
2023/06/20 01:35:54;;;;;;;7.05;4.75;;;;;;;;;;5053135;28;20080;-62
2023/06/20 01:38:22;;;;;;;6.03;5.35;;;;;;;;;;5053503;28;20505;-61
2023/06/20 01:40:49;;;;;;;5.70;5.18;;;;;;;;;;5053067;28;20049;-62
2023/06/20 01:43:17;;;;;;;8.15;6.07;;;;;;;;;;5053393;28;20056;-62
2023/06/20 01:45:45;;;;;;;8.32;5.45;;;;;;;;;;5053099;28;20405;-62
2023/06/20 01:48:13;;;;;;;6.90;5.95;;;;;;;;;;5052602;28;20049;-62
2023/06/20 01:50:40;;;;;;;8.02;6.65;;;;;;;;;;5052776;28;20048;-62
2023/06/20 01:53:08;;;;;;;8.05;6.53;;;;;;;;;;5052827;28;20041;-62
2023/06/20 01:55:36;;;;;;;9.68;6.32;;;;;;;;;;5052824;28;20479;-62
2023/06/20 01:58:03;;;;;;;9.55;7.70;;;;;;;;;;5052897;28;20041;-62
2023/06/20 02:00:31;;;;;;;11.10;7.70;;;;;;;;;;5052368;28;20049;-62
2023/06/20 02:02:59;;;;;;;10.80;8.35;;;;;;;;;;5052897;28;20052;-62
2023/06/20 02:05:25;;;;;;;;;;;;;;;;;;5053169;28;20049;-62
2023/06/20 02:07:54;;;;;;;9.98;7.10;;;;;;;;;;5052545;28;19928;-62
2023/06/20 02:10:21;;;;;;;14.15;7.32;;;;;;;;;;5052670;28;20055;-62
2023/06/20 02:12:50;;;;;;;9.65;7.30;;;;;;;;;;5052191;28;20447;-62
2023/06/20 02:15:17;;;;;;;11.48;7.50;;;;;;;;;;5052535;28;20106;-62
2023/06/20 02:17:44;;;;;;;11.23;7.63;;;;;;;;;;5052503;28;20048;-62
2023/06/20 02:20:11;;;;;;;11.90;8.60;;;;;;;;;;5052284;28;20072;-62
2023/06/20 02:22:40;;;;;;;11.50;8.05;;;;;;;;;;5052210;28;20064;-62
2023/06/20 02:25:07;;;;;;;9.00;8.13;;;;;;;;;;5052292;28;20401;-62
2023/06/20 02:27:35;;;;;;;10.95;8.05;;;;;;;;;;5052341;28;20435;-61
2023/06/20 02:30:03;;;;;;;13.80;8.60;;;;;;;;;;5052297;28;20056;-62
2023/06/20 02:32:31;;;;;;;12.02;9.35;;;;;;;;;;5052270;28;20045;-62
2023/06/20 02:34:58;;;;;;;15.77;9.93;;;;;;;;;;5051905;28;20056;-62
2023/06/20 02:37:27;;;;;;;14.43;10.02;;;;;;;;;;5052191;28;20060;-62
2023/06/20 02:39:55;;;;;;;13.77;9.57;;;;;;;;;;5052017;28;20515;-62
2023/06/20 02:42:22;;;;;;;23.00;11.90;;;;;;;;;;5051754;28;20045;-62
2023/06/20 02:44:48;;;;;;;14.30;10.48;;;;;;;;;;5051943;28;20061;-62
2023/06/20 02:47:20;;;;;;;16.50;10.00;;;;;;;;;;5051631;28;20056;-62
2023/06/20 02:50:04;;;;;;;16.75;10.43;;;;;;;;;;5051843;28;20077;-62
2023/06/20 02:52:30;;;;;;;15.85;10.73;;;;;;;;;;5051526;28;20451;-62
2023/06/20 02:55:01;;;;;;;17.00;11.55;;;;;;;;;;5051946;28;20060;-62
2023/06/20 02:57:29;;;;;;;18.42;12.27;;;;;;;;;;5051535;28;20049;-62
2023/06/20 03:00:00;;;;;;;22.00;11.45;;;;;;;;;;5051619;28;20493;-62
2023/06/20 03:02:30;;;;;;;18.27;12.10;;;;;;;;;;5051791;28;20099;-62
2023/06/20 03:04:59;;;;;;;16.52;11.00;;;;;;;;;;5051523;28;20045;-62
2023/06/20 03:07:26;;;;;;;16.88;10.85;;;;;;;;;;5051674;28;20045;-62
2023/06/20 03:09:54;;;;;;;16.02;11.63;;;;;;;;;;5051793;28;20405;-62
2023/06/20 03:12:20;;;;;;;16.38;10.90;;;;;;;;;;5050977;28;20041;-62
2023/06/20 03:14:46;;;;;;;15.93;10.70;;;;;;;;;;5051697;28;20049;-62
2023/06/20 03:17:13;;;;;;;20.55;11.20;;;;;;;;;;5051294;28;20052;-62
2023/06/20 03:19:39;;;;;;;15.77;10.27;;;;;;;;;;5051291;28;20060;-62
2023/06/20 03:22:06;;;;;;;15.07;10.20;;;;;;;;;;5051606;28;20044;-62
2023/06/20 03:24:32;;;;;;;15.93;10.90;;;;;;;;;;5051482;28;20056;-62
2023/06/20 03:26:59;;;;;;;14.15;9.98;;;;;;;;;;5051267;28;20049;-62
2023/06/20 03:29:25;;;;;;;17.23;9.40;;;;;;;;;;5051560;28;20051;-62
2023/06/20 03:31:52;;;;;;;12.93;8.68;;;;;;;;;;5051299;28;20102;-62
2023/06/20 03:34:18;;;;;;;13.43;8.85;;;;;;;;;;5051166;28;20610;-62
2023/06/20 03:36:45;;;;;;;14.48;9.05;;;;;;;;;;5051404;28;20098;-62
2023/06/20 03:39:11;;;;;;;12.15;8.32;;;;;;;;;;5051167;28;20053;-62
2023/06/20 03:41:37;;;;;;;13.70;8.63;;;;;;;;;;5051162;28;20420;-61
2023/06/20 03:44:04;;;;;;;14.50;9.10;;;;;;;;;;5051074;28;20095;-62
2023/06/20 03:46:30;;;;;;;12.75;7.82;;;;;;;;;;5051120;28;20045;-62
2023/06/20 03:48:57;;;;;;;12.18;8.15;;;;;;;;;;5051078;28;20052;-62
2023/06/20 03:51:23;;;;;;;13.20;8.20;;;;;;;;;;5051440;28;20060;-62
2023/06/20 03:53:50;;;;;;;14.60;9.02;;;;;;;;;;5051041;28;20095;-62
2023/06/20 03:56:16;;;;;;;18.23;9.35;;;;;;;;;;5051150;28;20478;-62
2023/06/20 03:58:42;;;;;;;15.40;8.93;;;;;;;;;;5050953;28;20099;-62
2023/06/20 04:01:09;;;;;;;15.75;7.75;;;;;;;;;;5050923;28;20049;-61
2023/06/20 04:03:35;;;;;;;10.55;6.80;;;;;;;;;;5051084;28;20053;-62
2023/06/20 04:06:02;;;;;;;12.23;8.10;;;;;;;;;;5051042;28;20041;-62
2023/06/20 04:08:29;;;;;;;27.77;9.98;;;;;;;;;;5050957;28;20064;-61
2023/06/20 04:10:56;;;;;;;19.20;9.67;;;;;;;;;;5051226;28;20094;-62
2023/06/20 04:13:25;;;;;;;14.40;8.32;;;;;;;;;;5051010;28;20581;-62
2023/06/20 04:15:52;;;;;;;19.90;9.52;;;;;;;;;;5050783;28;20053;-62
2023/06/20 04:18:18;;;;;;;13.50;8.50;;;;;;;;;;5051097;28;20060;-62
2023/06/20 04:20:45;;;;;;;11.98;7.82;;;;;;;;;;5051092;28;20476;-62
2023/06/20 04:23:11;;;;;;;15.13;8.40;;;;;;;;;;5050697;28;20048;-62
2023/06/20 04:25:37;;;;;;;14.93;8.13;;;;;;;;;;5053510;28;20049;-62
2023/06/20 04:28:04;;;;;;;14.45;7.50;;;;;;;;;;5054353;28;20060;-61
2023/06/20 04:30:31;;;;;;;17.35;9.02;;;;;;;;;;5054513;28;20404;-62
2023/06/20 04:32:58;;;;;;;13.27;8.88;;;;;;;;;;5054556;28;20099;-62
2023/06/20 04:35:24;;;;;;;16.42;8.55;;;;;;;;;;5054109;28;20052;-62
2023/06/20 04:37:51;;;;;;;18.03;9.10;;;;;;;;;;5054375;28;20053;-62
2023/06/20 04:40:18;;;;;;;16.33;9.27;;;;;;;;;;5054339;28;20045;-62
2023/06/20 04:42:45;;;;;;;22.33;10.53;;;;;;;;;;5054154;28;20060;-62
2023/06/20 04:45:11;;;;;;;22.75;9.85;;;;;;;;;;5054176;28;20390;-61
2023/06/20 04:47:39;;;;;;;16.60;8.48;;;;;;;;;;5054144;28;20057;-61
2023/06/20 04:50:06;;;;;;;17.25;8.85;;;;;;;;;;5054346;28;20045;-62
2023/06/20 04:52:33;;;;;;;14.70;8.33;;;;;;;;;;5054155;28;20080;-62
2023/06/20 04:55:01;;;;;;;23.10;9.48;;;;;;;;;;5053790;28;20063;-62
2023/06/20 04:57:28;;;;;;;11.63;7.97;;;;;;;;;;5053665;28;20053;-62
2023/06/20 04:59:55;;;;;;;15.07;8.95;;;;;;;;;;5054068;28;20048;-62
2023/06/20 05:02:22;;;;;;;19.33;9.73;;;;;;;;;;5053639;28;20056;-62
2023/06/20 05:04:48;;;;;;;20.00;10.38;;;;;;;;;;5054028;28;20051;-62
2023/06/20 05:07:15;;;;;;;20.77;9.98;;;;;;;;;;5053598;28;20067;-62
2023/06/20 05:09:41;;;;;;;19.48;10.98;;;;;;;;;;5053581;28;20052;-62
2023/06/20 05:12:08;;;;;;;15.70;9.70;;;;;;;;;;5053473;28;20045;-62
2023/06/20 05:14:34;;;;;;;15.00;8.82;;;;;;;;;;5053397;28;20128;-62
2023/06/20 05:17:01;;;;;;;16.80;8.60;;;;;;;;;;5053647;28;20095;-61
2023/06/20 05:19:27;;;;;;;11.02;7.53;;;;;;;;;;5053420;28;20095;-62
2023/06/20 05:21:54;;;;;;;13.57;7.28;;;;;;;;;;5053427;28;20048;-62
2023/06/20 05:24:20;;;;;;;10.65;6.43;;;;;;;;;;5053266;28;20076;-62
2023/06/20 05:26:47;;;;;;;10.35;5.88;;;;;;;;;;5053196;28;20462;-62
2023/06/20 05:29:13;;;;;;;10.20;5.97;;;;;;;;;;5053230;28;20546;-62
2023/06/20 05:31:41;;;;;;;8.27;5.82;;;;;;;;;;5053071;28;20068;-62
2023/06/20 05:34:07;;;;;;;9.88;6.25;;;;;;;;;;5053243;28;20049;-61
2023/06/20 05:36:34;;;;;;;10.13;5.70;;;;;;;;;;5053120;28;20127;-62
2023/06/20 05:39:00;;;;;;;8.35;5.72;;;;;;;;;;5053331;28;20052;-62
2023/06/20 05:41:27;;;;;;;8.07;5.03;;;;;;;;;;5053397;28;20049;-61
2023/06/20 05:43:53;;;;;;;7.47;5.47;;;;;;;;;;5053244;28;20056;-62
2023/06/20 05:46:19;;;;;;;9.10;5.50;;;;;;;;;;5052913;28;20107;-62
2023/06/20 05:48:48;;;;;;;8.55;5.60;;;;;;;;;;5052439;28;20098;-62
2023/06/20 05:51:14;;;;;;;7.28;5.38;;;;;;;;;;5052840;28;20041;-62
2023/06/20 05:53:41;;;;;;;12.23;6.10;;;;;;;;;;5052925;28;20041;-61
2023/06/20 05:56:08;;;;;;;8.45;5.40;;;;;;;;;;5052761;28;20055;-61
2023/06/20 05:58:36;;;;;;;7.35;4.80;;;;;;;;;;5052904;28;20049;-61
2023/06/20 06:01:03;;;;;;;12.98;5.72;;;;;;;;;;5052906;28;20056;-61
2023/06/20 06:03:32;;;;;;;6.70;4.72;;;;;;;;;;5052608;28;20049;-61
2023/06/20 06:05:59;;;;;;;8.15;5.35;;;;;;;;;;5032693;28;20549;-61
2023/06/20 06:08:25;;;;;;;7.28;4.63;;;;;;;;;;5040267;28;20044;-62
2023/06/20 06:10:53;;;;;;;6.30;4.30;;;;;;;;;;5032844;28;20045;-63
2023/06/20 06:13:20;;;;;;;10.38;4.82;;;;;;;;;;5032636;28;20052;-63
2023/06/20 06:15:46;;;;;;;8.07;5.07;;;;;;;;;;5032714;28;20055;-64
2023/06/20 06:18:25;;;;;;;5.68;4.30;;;;;;;;;;5036460;28;20275;-62
2023/06/20 06:20:52;;;;;;;10.52;4.68;;;;;;;;;;5032209;28;20057;-61
2023/06/20 06:23:18;;;;;;;9.20;5.00;;;;;;;;;;5032312;28;20060;-61
2023/06/20 06:25:45;;;;;;;7.15;4.20;;;;;;;;;;5032214;28;20049;-61
2023/06/20 06:28:12;;;;;;;;;;;;;;;;;;5048315;28;20416;-61
2023/06/20 06:30:38;;;;;;;7.60;4.30;;;;;;;;;;5052224;28;19998;-62
2023/06/20 06:33:07;;;;;;;9.27;4.88;;;;;;;;;;5052214;28;20056;-62
2023/06/20 06:35:34;;;;;;;5.57;3.78;;;;;;;;;;5045112;28;20088;-61
2023/06/20 06:38:01;;;;;;;6.97;4.28;;;;;;;;;;5047049;28;20052;-62
2023/06/20 06:40:27;;;;;;;4.22;3.50;;;;;;;;;;5038864;28;20050;-61
2023/06/20 06:42:54;;;;;;;8.80;4.20;;;;;;;;;;5031907;28;20045;-62
2023/06/20 06:45:21;;;;;;;4.47;3.75;;;;;;;;;;5031745;28;20426;-62
2023/06/20 06:47:47;;;;;;;5.68;3.80;;;;;;;;;;5031051;28;20049;-61
2023/06/20 06:50:14;;;;;;;6.78;3.85;;;;;;;;;;5031325;28;20049;-62
2023/06/20 06:52:41;;;;;;;4.67;3.73;;;;;;;;;;5031570;28;20045;-62
2023/06/20 06:55:08;;;;;;;5.32;4.05;;;;;;;;;;5045910;28;20080;-61
2023/06/20 06:57:34;;;;;;;4.00;3.60;;;;;;;;;;5050144;28;20053;-62
2023/06/20 07:00:01;;;;;;;5.30;3.85;;;;;;;;;;5050009;28;20049;-61
2023/06/20 07:02:27;;;;;;;5.35;4.00;;;;;;;;;;5050979;28;20060;-61
2023/06/20 07:04:54;;;;;;;4.25;3.78;;;;;;;;;;5051126;28;20080;-62
2023/06/20 07:07:20;;;;;;;4.95;3.65;;;;;;;;;;5051034;28;20451;-62
2023/06/20 07:09:47;;;;;;;5.03;3.80;;;;;;;;;;5051558;28;20044;-62
2023/06/20 07:12:13;;;;;;;4.63;3.67;;;;;;;;;;5051579;28;20045;-62
2023/06/20 07:14:40;;;;;;;4.25;3.50;;;;;;;;;;5051786;28;20053;-62
2023/06/20 07:17:06;;;;;;;4.20;3.35;;;;;;;;;;5051307;28;20489;-61
2023/06/20 07:19:33;;;;;;;4.88;3.35;;;;;;;;;;5051688;28;20099;-62
2023/06/20 07:21:59;;;;;;;5.45;3.53;;;;;;;;;;5051607;28;20257;-62
2023/06/20 07:24:26;;;;;;;5.38;3.28;;;;;;;;;;5051617;28;20064;-62
2023/06/20 07:26:52;;;;;;;6.17;3.60;;;;;;;;;;5051618;28;20072;-62
2023/06/20 07:29:19;;;;;;;4.45;3.33;;;;;;;;;;5051659;28;20400;-61
2023/06/20 07:31:45;;;;;;;5.53;3.20;;;;;;;;;;5051233;28;20041;-62
2023/06/20 07:34:12;;;;;;;2.70;2.50;;;;;;;;;;5051286;28;20408;-62
2023/06/20 07:36:38;;;;;;;4.30;3.10;;;;;;;;;;5051341;28;20312;-62
2023/06/20 07:39:06;;;;;;;3.42;2.90;;;;;;;;;;5051553;28;20048;-62
2023/06/20 07:41:32;;;;;;;4.55;3.08;;;;;;;;;;5051238;28;20560;-62
2023/06/20 07:43:59;;;;;;;5.85;3.15;;;;;;;;;;5051156;28;20044;-62
2023/06/20 07:46:25;;;;;;;5.38;3.13;;;;;;;;;;5051341;28;20512;-62
2023/06/20 07:48:52;;;;;;;3.67;3.00;;;;;;;;;;5051021;28;20057;-62
2023/06/20 07:51:18;;;;;;;3.88;2.80;;;;;;;;;;5051696;28;20045;-62
2023/06/20 07:53:45;;;;;;;2.72;2.42;;;;;;;;;;5051240;28;20442;-62
2023/06/20 07:56:11;;;;;;;3.33;2.67;;;;;;;;;;5051483;28;20051;-62
2023/06/20 07:58:39;;;;;;;2.67;2.35;;;;;;;;;;5052232;28;20060;-62
2023/06/20 08:01:06;;;;;;;3.25;2.30;;;;;;;;;;5054949;28;20060;-62
2023/06/20 08:03:32;;;;;;;4.40;2.47;;;;;;;;;;5055110;28;20057;-62
2023/06/20 08:05:59;;;;;;;3.17;2.47;;;;;;;;;;5054787;28;20544;-62
2023/06/20 08:08:25;;;;;;;3.70;2.40;;;;;;;;;;5054736;28;20044;-62
2023/06/20 08:10:52;;;;;;;4.03;2.28;;;;;;;;;;5054918;28;20037;-62
2023/06/20 08:13:18;;;;;;;2.53;2.30;;;;;;;;;;5054988;28;20053;-62
2023/06/20 08:15:45;;;;;;;2.45;2.10;;;;;;;;;;5054806;28;20076;-62
2023/06/20 08:18:11;;;;;;;2.78;2.20;;;;;;;;;;5054740;28;20055;-62
2023/06/20 08:20:38;;;;;;;4.55;2.97;;;;;;;;;;5054808;28;20053;-61
2023/06/20 08:23:04;;;;;;;2.47;1.70;;;;;;;;;;5054470;28;20056;-62
2023/06/20 08:25:31;;;;;;;1.83;1.73;;;;;;;;;;5054385;28;20496;-62
2023/06/20 08:27:57;;;;;;;2.47;2.20;;;;;;;;;;5054360;28;20060;-62
2023/06/20 08:30:39;;;;;;;3.08;2.00;;;;;;;;;;5054698;28;20119;-62
2023/06/20 08:33:05;;;;;;;2.27;1.97;;;;;;;;;;5054570;28;20049;-62
2023/06/20 08:35:32;;;;;;;4.03;2.15;;;;;;;;;;5054395;28;20053;-62
2023/06/20 08:37:58;;;;;;;3.77;2.00;;;;;;;;;;5054269;28;20408;-62
2023/06/20 08:40:25;;;;;;;2.43;2.03;;;;;;;;;;5054278;28;20128;-62
2023/06/20 08:42:54;;;;;;;2.30;2.17;;;;;;;;;;5054481;28;20079;-62
2023/06/20 08:45:21;;;;;;;3.10;2.50;;;;;;;;;;5053800;28;20455;-62
2023/06/20 08:47:47;;;;;;;4.37;2.23;;;;;;;;;;5054085;28;20057;-62
2023/06/20 08:50:14;;;;;;;3.00;2.42;;;;;;;;;;5054025;28;20701;-62
2023/06/20 08:52:47;;;;;;;2.73;2.27;;;;;;;;;;5054185;28;20058;-62
2023/06/20 08:55:14;;;;;;;2.45;2.20;;;;;;;;;;5054286;28;20749;-62
2023/06/20 08:57:41;;;;;;;2.50;2.10;;;;;;;;;;5053960;28;20485;-62
2023/06/20 09:00:10;;;;;;;4.22;2.10;;;;;;;;;;5054013;28;20083;-62
2023/06/20 09:02:36;;;;;;;2.30;1.83;;;;;;;;;;5053844;28;20060;-62
2023/06/20 09:05:04;;;;;;;3.53;2.30;;;;;;;;;;5053865;28;20048;-62
2023/06/20 09:07:30;;;;;;;;;;;;;;;;;;5053837;28;20040;-62
2023/06/20 09:09:59;;;;;;;2.75;1.88;;;;;;;;;;5052808;28;19920;-62
2023/06/20 09:12:26;;;;;;;1.83;1.70;;;;;;;;;;5053396;28;20492;-62
2023/06/20 09:14:52;;;;;;;3.03;2.10;;;;;;;;;;5053786;28;20045;-62
2023/06/20 09:17:19;;;;;;;2.97;2.00;;;;;;;;;;5053424;28;20485;-62
2023/06/20 09:19:46;;;;;;;1.95;1.85;;;;;;;;;;5053311;28;20100;-62
2023/06/20 09:22:16;;;;;;;3.15;1.77;;;;;;;;;;5053316;28;20049;-62
2023/06/20 09:24:44;;;;;;;2.25;1.90;;;;;;;;;;5053292;28;20049;-62
2023/06/20 09:27:11;;;;;;;3.28;1.73;;;;;;;;;;5053131;28;20048;-62
2023/06/20 09:29:51;;;;;;;2.45;2.03;;;;;;;;;;5053509;28;20536;-62
2023/06/20 09:32:19;;;;;;;3.20;1.70;;;;;;;;;;5053162;28;20041;-62
2023/06/20 09:34:45;;;;;;;3.30;2.08;;;;;;;;;;5053093;28;20063;-62
2023/06/20 09:37:14;;;;;;;2.97;1.92;;;;;;;;;;5053304;28;20398;-62
2023/06/20 09:39:40;;;;;;;3.88;1.75;;;;;;;;;;5053235;28;20049;-62
2023/06/20 09:42:10;;;;;;;3.20;2.07;;;;;;;;;;5052874;28;20500;-62
2023/06/20 09:44:36;;;;;;;2.42;1.88;;;;;;;;;;5052915;28;20290;-62
2023/06/20 09:47:03;;;;;;;3.17;1.80;;;;;;;;;;5052722;28;20044;-62
2023/06/20 09:49:30;;;;;;;2.00;1.63;;;;;;;;;;5052721;28;20052;-62
2023/06/20 09:52:01;;;;;;;3.05;1.80;;;;;;;;;;5052717;28;20055;-62
2023/06/20 09:54:29;;;;;;;2.78;1.88;;;;;;;;;;5053025;28;20441;-62
2023/06/20 09:57:02;;;;;;;2.92;1.70;;;;;;;;;;5052848;28;20056;-63
2023/06/20 09:59:29;;;;;;;2.97;1.90;;;;;;;;;;5052777;28;20137;-62
2023/06/20 10:01:58;;;;;;;3.42;2.30;;;;;;;;;;5053025;28;20396;-62
2023/06/20 10:04:29;;;;;;;2.83;1.80;;;;;;;;;;5052388;28;20515;-63
2023/06/20 10:06:55;;;;;;;3.70;1.83;;;;;;;;;;5052682;28;20052;-62
2023/06/20 10:09:23;;;;;;;4.82;2.08;;;;;;;;;;5051462;28;20053;-62
2023/06/20 10:11:49;;;;;;;2.65;1.65;;;;;;;;;;5052991;28;20056;-62
2023/06/20 10:14:16;;;;;;;2.90;1.30;;;;;;;;;;5052437;28;20060;-62
2023/06/20 10:16:50;;;;;;;1.92;1.58;;;;;;;;;;5052493;28;20574;-62
2023/06/20 10:19:19;;;;;;;1.15;1.05;;;;;;;;;;5052623;28;20057;-62
2023/06/20 10:21:57;;;;;;;2.92;1.50;;;;;;;;;;5052276;28;20420;-62
2023/06/20 10:24:24;;;;;;;3.55;1.77;;;;;;;;;;5052238;28;20053;-62
2023/06/20 10:26:52;;;;;;;2.47;1.50;;;;;;;;;;5052249;28;20087;-62
2023/06/20 10:29:20;;;;;;;2.13;1.52;;;;;;;;;;5052168;28;20083;-62
2023/06/20 10:31:57;;;;;;;2.17;1.35;;;;;;;;;;5050753;28;20053;-62
2023/06/20 10:34:34;;;;;;;1.42;1.33;;;;;;;;;;5052009;28;20417;-62
2023/06/20 10:37:10;;;;;;;1.50;1.08;;;;;;;;;;5051884;28;20045;-62
2023/06/20 10:39:36;;;;;;;1.55;1.45;;;;;;;;;;5052335;28;20511;-62
2023/06/20 10:42:06;;;;;;;2.50;1.60;;;;;;;;;;5051822;28;20056;-62
2023/06/20 10:44:32;;;;;;;2.33;1.50;;;;;;;;;;5051848;28;20052;-63
2023/06/20 10:46:59;;;;;;;1.95;1.40;;;;;;;;;;5051802;28;20884;-62
2023/06/20 10:49:26;;;;;;;3.45;1.85;;;;;;;;;;5051718;28;20056;-62
2023/06/20 10:51:55;;;;;;;2.83;1.77;;;;;;;;;;5051953;28;20107;-62
2023/06/20 10:54:21;;;;;;;2.30;1.60;;;;;;;;;;5052000;28;20103;-62
2023/06/20 10:56:48;;;;;;;1.60;1.38;;;;;;;;;;5052010;28;20063;-62
2023/06/20 10:59:18;;;;;;;4.03;1.42;;;;;;;;;;5051734;28;20048;-62
2023/06/20 11:01:45;;;;;;;2.33;1.67;;;;;;;;;;5051935;28;20135;-62
2023/06/20 11:04:12;;;;;;;1.52;1.38;;;;;;;;;;5037413;28;20049;-62
2023/06/20 11:06:39;;;;;;;1.33;1.23;;;;;;;;;;5051709;28;20048;-62
2023/06/20 11:09:15;;;;;;;1.67;1.38;;;;;;;;;;5051661;28;20051;-62
2023/06/20 11:11:42;;;;;;;1.40;1.27;;;;;;;;;;5051681;28;20045;-63
2023/06/20 11:14:28;;;;;;;2.00;1.30;;;;;;;;;;5051412;28;20049;-62
2023/06/20 11:16:55;;;;;;;1.42;1.20;;;;;;;;;;5051712;28;20041;-62
2023/06/20 11:19:22;;;;;;;1.30;1.20;;;;;;;;;;5051668;28;20049;-62
2023/06/20 11:22:01;;;;;;;1.00;0.88;;;;;;;;;;5051736;28;20056;-62
2023/06/20 11:24:29;;;;;;;3.33;1.30;;;;;;;;;;5051454;28;20057;-62
2023/06/20 11:27:09;;;;;;;1.77;1.15;;;;;;;;;;5051255;28;20152;-62
2023/06/20 11:29:36;;;;;;;1.02;0.95;;;;;;;;;;5051420;28;20174;-62
2023/06/20 11:32:07;;;;;;;2.38;1.70;;;;;;;;;;5051469;28;20052;-62
2023/06/20 11:34:49;;;;;;;1.67;1.58;;;;;;;;;;5054219;28;20048;-62
2023/06/20 11:37:16;;;;;;;1.85;1.40;;;;;;;;;;5055635;28;20072;-62
2023/06/20 11:39:42;;;;;;;2.70;1.50;;;;;;;;;;5055587;28;20057;-62
2023/06/20 11:42:14;;;;;;;1.63;1.20;;;;;;;;;;5055316;28;20559;-62
2023/06/20 11:44:40;;;;;;;2.17;1.73;;;;;;;;;;5055405;28;20052;-62
2023/06/20 11:47:07;;;;;;;3.45;1.30;;;;;;;;;;5055213;28;20063;-62
2023/06/20 11:49:33;;;;;;;1.67;1.40;;;;;;;;;;5055000;28;20049;-62
2023/06/20 11:52:01;;;;;;;2.55;1.63;;;;;;;;;;5055101;28;20045;-63
2023/06/20 11:54:27;;;;;;;1.88;1.70;;;;;;;;;;5055337;28;20073;-62
2023/06/20 11:56:54;;;;;;;3.30;1.55;;;;;;;;;;5055082;28;20505;-62
2023/06/20 11:59:23;;;;;;;2.25;1.90;;;;;;;;;;5055318;28;20052;-62
2023/06/20 12:01:50;;;;;;;2.72;2.45;;;;;;;;;;5055056;28;20049;-63
2023/06/20 12:04:16;;;;;;;;;;;;;;;;;;5055244;28;20060;-63
2023/06/20 12:06:43;;;;;;;2.33;1.63;;;;;;;;;;5055298;28;19925;-63
2023/06/20 12:09:09;;;;;;;2.53;1.40;;;;;;;;;;5055057;28;20053;-63
2023/06/20 12:11:46;;;;;;;1.70;1.35;;;;;;;;;;5054889;28;20060;-63
2023/06/20 12:14:14;;;;;;;3.28;1.48;;;;;;;;;;5055000;28;20132;-63
2023/06/20 12:16:41;;;;;;;1.20;1.10;;;;;;;;;;5054989;28;20051;-63
2023/06/20 12:19:07;;;;;;;1.55;1.45;;;;;;;;;;5054564;28;20063;-63
2023/06/20 12:21:34;;;;;;;1.40;1.10;;;;;;;;;;5054817;28;20057;-63
2023/06/20 12:24:00;;;;;;;1.40;1.30;;;;;;;;;;5054764;28;20079;-63
2023/06/20 12:26:27;;;;;;;2.03;1.58;;;;;;;;;;5054571;28;20045;-62
2023/06/20 12:28:53;;;;;;;2.85;1.70;;;;;;;;;;5054490;28;20048;-63
2023/06/20 12:31:20;;;;;;;;;;;;;;;;;;5055276;28;20049;-62
2023/06/20 12:33:46;;;;;;;2.20;2.00;;;;;;;;;;5054225;28;19921;-62
2023/06/20 12:36:12;;;;;;;;;;;;;;;;;;5043254;28;20056;-63
2023/06/20 12:38:39;;;;;;;1.60;1.50;;;;;;;;;;5052255;28;19928;-63
2023/06/20 12:41:05;;;;;;;2.50;1.40;;;;;;;;;;5054330;28;20049;-63
2023/06/20 12:43:32;;;;;;;2.25;1.17;;;;;;;;;;5054383;28;20099;-63
2023/06/20 12:45:59;;;;;;;1.10;1.10;;;;;;;;;;5052914;28;20480;-63
2023/06/20 12:48:25;;;;;;;1.27;1.00;;;;;;;;;;5053772;28;20053;-62
2023/06/20 12:50:52;;;;;;;1.00;0.90;;;;;;;;;;5054296;28;20282;-63
2023/06/20 12:53:18;;;;;;;1.30;1.13;;;;;;;;;;5054141;28;20413;-63
2023/06/20 12:55:45;;;;;;;1.10;1.00;;;;;;;;;;5054052;28;20052;-63
2023/06/20 12:58:14;;;;;;;0.73;0.73;;;;;;;;;;5054212;28;20057;-63
2023/06/20 13:00:41;;;;;;;0.70;0.70;;;;;;;;;;5053815;28;20045;-63
2023/06/20 13:03:11;;;;;;;1.30;1.20;;;;;;;;;;5054139;28;20044;-63
2023/06/20 13:05:37;;;;;;;0.70;0.70;;;;;;;;;;5053895;28;20136;-63
2023/06/20 13:08:05;;;;;;;0.75;0.70;;;;;;;;;;5053546;28;20091;-63
2023/06/20 13:10:31;;;;;;;1.80;1.00;;;;;;;;;;5053680;28;20049;-62
2023/06/20 13:12:58;;;;;;;0.88;0.88;;;;;;;;;;5053717;28;20041;-63
2023/06/20 13:15:25;;;;;;;1.15;1.05;;;;;;;;;;5053790;28;20071;-62
2023/06/20 13:17:55;;;;;;;1.20;0.95;;;;;;;;;;5053693;28;20413;-63
2023/06/20 13:20:22;;;;;;;1.70;0.93;;;;;;;;;;5053474;28;20054;-63
2023/06/20 13:22:49;;;;;;;1.65;1.05;;;;;;;;;;5053615;28;20476;-62
2023/06/20 13:25:15;;;;;;;1.25;1.10;;;;;;;;;;5053440;28;20045;-63
2023/06/20 13:27:42;;;;;;;1.08;0.88;;;;;;;;;;5053248;28;20052;-62
2023/06/20 13:30:08;;;;;;;1.67;1.20;;;;;;;;;;5053732;28;20064;-63
2023/06/20 13:32:36;;;;;;;1.30;1.20;;;;;;;;;;5053508;28;20071;-63
2023/06/20 13:35:03;;;;;;;1.05;1.00;;;;;;;;;;5053142;28;20051;-63
2023/06/20 13:37:31;;;;;;;2.20;1.00;;;;;;;;;;5053180;28;20060;-62
2023/06/20 13:39:58;;;;;;;2.28;1.35;;;;;;;;;;5052996;28;20057;-63
2023/06/20 13:42:24;;;;;;;1.23;1.00;;;;;;;;;;5053257;28;20049;-63
2023/06/20 13:44:51;;;;;;;1.02;0.98;;;;;;;;;;5053238;28;20057;-63
2023/06/20 13:47:18;;;;;;;1.08;1.00;;;;;;;;;;5053069;28;20397;-63
2023/06/20 13:49:44;;;;;;;1.58;1.30;;;;;;;;;;5052759;28;20508;-62
2023/06/20 13:52:11;;;;;;;2.00;1.15;;;;;;;;;;5052979;28;20513;-62
2023/06/20 13:54:37;;;;;;;1.13;1.10;;;;;;;;;;5052857;28;20099;-62
2023/06/20 13:57:04;;;;;;;1.50;1.40;;;;;;;;;;5052449;28;20107;-62
2023/06/20 13:59:30;;;;;;;1.13;1.05;;;;;;;;;;5052704;28;20057;-63
2023/06/20 14:01:56;;;;;;;1.50;1.40;;;;;;;;;;5053352;28;20057;-62
2023/06/20 14:04:23;;;;;;;2.28;1.27;;;;;;;;;;5052714;28;20087;-62
2023/06/20 14:06:49;;;;;;;2.03;1.80;;;;;;;;;;5052571;28;20083;-62
2023/06/20 14:09:16;;;;;;;3.72;2.00;;;;;;;;;;5052820;28;20064;-62
2023/06/20 14:11:44;;;;;;;1.75;1.45;;;;;;;;;;5052441;28;20049;-62
2023/06/20 14:14:11;;;;;;;2.40;1.80;;;;;;;;;;5052686;28;20049;-62
2023/06/20 14:16:37;;;;;;;2.65;1.83;;;;;;;;;;5052431;28;20102;-62
2023/06/20 14:19:04;;;;;;;2.15;1.88;;;;;;;;;;5052347;28;20503;-62
2023/06/20 14:21:31;;;;;;;2.22;2.03;;;;;;;;;;5052232;28;20060;-62
2023/06/20 14:23:57;;;;;;;2.80;2.13;;;;;;;;;;5052362;28;20131;-63
2023/06/20 14:26:24;;;;;;;3.47;2.45;;;;;;;;;;5052318;28;20049;-62
2023/06/20 14:28:50;;;;;;;2.05;1.90;;;;;;;;;;5052409;28;20103;-62
2023/06/20 14:31:17;;;;;;;2.55;2.33;;;;;;;;;;5052320;28;20118;-62
2023/06/20 14:33:43;;;;;;;3.10;2.00;;;;;;;;;;5052040;28;20128;-63
2023/06/20 14:36:10;;;;;;;2.10;2.00;;;;;;;;;;5052690;28;20048;-63
2023/06/20 14:38:36;;;;;;;;;;;;;;;;;;5052420;28;20393;-62
2023/06/20 14:41:03;;;;;;;2.35;2.08;;;;;;;;;;5051943;28;20671;-63
2023/06/20 14:43:29;;;;;;;2.10;1.90;;;;;;;;;;5052157;28;20408;-62